Time;durP1;ratioP1;P1;durP2;ratioP2;P2;SDS_P1;SDS_P2;PMS_P1;PMS_P2;Temp;Humidity;BMP_temperature;BMP_pressure;BME280_temperature;BME280_humidity;BME280_pressure;Samples;Min_cycle;Max_cycle;Signal;HPM_P1;HPM_P2
2023/11/03 00:01:49;;;;;;;17.08;10.45;;;9.40;99.90;;;;;;5051168;28;20052;-61
2023/11/03 00:04:16;;;;;;;20.00;10.32;;;9.40;99.90;;;;;;5050974;28;20365;-61
2023/11/03 00:06:43;;;;;;;14.00;10.65;;;9.40;99.90;;;;;;5048986;28;20099;-63
2023/11/03 00:09:14;;;;;;;12.07;9.52;;;9.50;99.90;;;;;;5048990;28;20044;-62
2023/11/03 00:11:45;;;;;;;11.90;10.48;;;9.50;99.90;;;;;;5054614;28;20041;-64
2023/11/03 00:14:12;;;;;;;15.40;9.85;;;9.50;99.90;;;;;;5052480;28;20041;-61
2023/11/03 00:16:39;;;;;;;16.48;10.75;;;9.60;99.90;;;;;;5049518;28;20052;-67
2023/11/03 00:19:07;;;;;;;14.27;9.70;;;9.50;99.90;;;;;;5048787;28;20040;-61
2023/11/03 00:21:34;;;;;;;18.13;10.32;;;9.50;99.90;;;;;;5030294;28;20132;-65
2023/11/03 00:24:01;;;;;;;12.80;9.65;;;9.60;99.90;;;;;;5054567;28;20052;-63
2023/11/03 00:26:28;;;;;;;11.65;9.05;;;9.60;99.90;;;;;;5053413;28;20076;-62
2023/11/03 00:28:55;;;;;;;17.77;10.30;;;9.60;99.90;;;;;;5053039;28;20490;-61
2023/11/03 00:31:22;;;;;;;16.70;10.02;;;9.60;99.90;;;;;;5050874;28;20040;-64
2023/11/03 00:33:49;;;;;;;17.70;9.52;;;9.60;99.90;;;;;;5055874;28;20044;-62
2023/11/03 00:36:16;;;;;;;14.85;9.52;;;9.60;99.90;;;;;;5055475;28;20036;-63
2023/11/03 00:38:44;;;;;;;12.48;9.55;;;9.60;99.90;;;;;;5054422;28;20486;-63
2023/11/03 00:41:14;;;;;;;12.27;9.68;;;9.60;99.90;;;;;;5055522;28;20057;-61
2023/11/03 00:43:43;;;;;;;13.32;10.02;;;9.60;99.90;;;;;;5054081;28;20105;-66
2023/11/03 00:46:09;;;;;;;14.15;11.18;;;9.60;99.90;;;;;;5054391;28;20131;-65
2023/11/03 00:48:36;;;;;;;14.23;9.18;;;9.60;99.90;;;;;;5057748;28;20055;-62
2023/11/03 00:51:04;;;;;;;9.85;8.27;;;9.60;99.90;;;;;;5056032;28;20041;-62
2023/11/03 00:53:31;;;;;;;16.55;8.95;;;9.60;99.90;;;;;;5052582;28;20052;-67
2023/11/03 00:55:58;;;;;;;12.50;8.48;;;9.60;99.90;;;;;;5032519;28;20057;-65
2023/11/03 00:58:25;;;;;;;10.73;9.57;;;9.60;99.90;;;;;;5056960;28;20091;-61
2023/11/03 01:00:55;;;;;;;13.75;9.05;;;9.50;99.90;;;;;;5055610;28;20047;-65
2023/11/03 01:03:25;;;;;;;19.13;8.07;;;9.50;99.90;;;;;;5053538;28;20419;-64
2023/11/03 01:05:53;;;;;;;15.88;9.07;;;9.50;99.90;;;;;;5055064;28;20057;-61
2023/11/03 01:08:22;;;;;;;12.60;8.38;;;9.50;99.90;;;;;;5038133;28;20059;-68
2023/11/03 01:10:50;;;;;;;15.23;9.60;;;9.60;99.90;;;;;;5041328;28;20052;-62
2023/11/03 01:13:21;;;;;;;11.52;7.90;;;9.60;99.90;;;;;;5051445;28;20404;-61
2023/11/03 01:15:48;;;;;;;17.15;8.82;;;9.60;99.90;;;;;;5050493;28;20042;-60
2023/11/03 01:18:15;;;;;;;14.60;8.68;;;9.50;99.90;;;;;;5055163;28;20045;-61
2023/11/03 01:20:42;;;;;;;10.23;7.63;;;9.50;99.90;;;;;;5052647;28;20739;-64
2023/11/03 01:23:10;;;;;;;20.10;10.25;;;9.50;99.90;;;;;;5038507;28;20057;-61
2023/11/03 01:25:37;;;;;;;13.40;8.93;;;9.50;99.90;;;;;;5052495;28;20048;-60
2023/11/03 01:28:05;;;;;;;11.90;7.95;;;9.50;99.90;;;;;;5050244;28;20060;-61
2023/11/03 01:30:32;;;;;;;13.27;8.38;;;9.50;99.90;;;;;;5058775;28;20041;-61
2023/11/03 01:33:00;;;;;;;14.55;9.07;;;9.50;99.90;;;;;;5034069;28;20049;-63
2023/11/03 01:35:28;;;;;;;11.10;9.23;;;9.50;99.90;;;;;;5062552;28;20502;-62
2023/11/03 01:37:54;;;;;;;14.02;8.65;;;9.50;99.90;;;;;;5056324;28;20495;-61
2023/11/03 01:40:21;;;;;;;15.90;9.40;;;9.50;99.90;;;;;;5037492;28;20071;-64
2023/11/03 01:42:49;;;;;;;13.77;9.25;;;9.50;99.90;;;;;;5053476;28;20134;-62
2023/11/03 01:45:16;;;;;;;9.82;8.05;;;9.50;99.90;;;;;;5054654;28;20072;-62
2023/11/03 01:47:43;;;;;;;13.65;8.38;;;9.50;99.90;;;;;;5058021;28;20094;-62
2023/11/03 01:50:12;;;;;;;9.50;7.78;;;9.50;99.90;;;;;;5055000;28;20041;-60
2023/11/03 01:52:39;;;;;;;14.98;8.05;;;9.40;99.90;;;;;;5033412;28;20076;-63
2023/11/03 01:55:07;;;;;;;12.25;7.72;;;9.40;99.90;;;;;;5052623;28;20533;-63
2023/11/03 01:57:34;;;;;;;13.45;10.05;;;9.40;99.90;;;;;;5050830;28;20045;-61
2023/11/03 02:00:03;;;;;;;11.20;7.50;;;9.40;99.90;;;;;;5032994;28;20056;-63
2023/11/03 02:02:32;;;;;;;11.32;8.30;;;9.30;99.90;;;;;;5045508;28;20060;-65
2023/11/03 02:04:59;;;;;;;10.93;7.15;;;9.30;99.90;;;;;;5049141;28;20080;-61
2023/11/03 02:07:26;;;;;;;11.40;7.57;;;9.30;99.90;;;;;;5053029;28;20051;-61
2023/11/03 02:09:53;;;;;;;12.52;7.78;;;9.30;99.90;;;;;;5053813;28;20471;-62
2023/11/03 02:12:20;;;;;;;11.60;8.93;;;9.30;99.90;;;;;;5053936;28;20047;-65
2023/11/03 02:14:49;;;;;;;10.85;8.80;;;9.30;99.90;;;;;;5034533;28;20060;-61
2023/11/03 02:17:16;;;;;;;25.55;9.30;;;9.30;99.90;;;;;;5048766;28;20048;-64
2023/11/03 02:19:43;;;;;;;14.55;8.40;;;9.30;99.90;;;;;;5050829;28;20107;-62
2023/11/03 02:22:10;;;;;;;10.35;7.30;;;9.30;99.90;;;;;;5050383;28;20056;-61
2023/11/03 02:24:37;;;;;;;10.55;8.15;;;9.30;99.90;;;;;;5034701;28;20423;-61
2023/11/03 02:27:05;;;;;;;13.13;7.70;;;9.30;99.90;;;;;;5035963;28;20098;-62
2023/11/03 02:29:32;;;;;;;10.98;8.70;;;9.30;99.90;;;;;;5053895;28;20357;-61
2023/11/03 02:31:59;;;;;;;14.77;8.88;;;9.30;99.90;;;;;;5032620;28;20454;-62
2023/11/03 02:34:26;;;;;;;13.05;8.30;;;9.20;99.90;;;;;;5054068;28;20064;-66
2023/11/03 02:36:53;;;;;;;11.82;8.73;;;9.30;99.90;;;;;;5051360;28;20068;-62
2023/11/03 02:39:20;;;;;;;11.48;7.45;;;9.20;99.90;;;;;;5055600;28;20414;-67
2023/11/03 02:41:47;;;;;;;13.15;7.70;;;9.30;99.90;;;;;;5049576;28;20442;-63
2023/11/03 02:44:13;;;;;;;8.48;7.57;;;9.30;99.90;;;;;;5051143;28;20080;-63
2023/11/03 02:46:44;;;;;;;10.57;7.47;;;9.30;99.90;;;;;;5036803;28;20045;-61
2023/11/03 02:49:11;;;;;;;15.43;9.18;;;9.30;99.90;;;;;;5048162;28;20071;-60
2023/11/03 02:51:38;;;;;;;16.90;8.05;;;9.30;99.90;;;;;;5051678;28;20706;-62
2023/11/03 02:54:07;;;;;;;8.80;7.88;;;9.30;99.90;;;;;;5046753;28;20384;-65
2023/11/03 02:56:34;;;;;;;10.88;7.18;;;9.30;99.90;;;;;;5052842;28;20111;-62
2023/11/03 02:59:01;;;;;;;9.60;8.02;;;9.30;99.90;;;;;;5049216;28;20459;-67
2023/11/03 03:01:30;;;;;;;13.38;9.15;;;9.30;99.90;;;;;;5052826;28;20049;-62
2023/11/03 03:03:57;;;;;;;9.45;7.45;;;9.30;99.90;;;;;;5054608;28;20044;-63
2023/11/03 03:06:24;;;;;;;9.90;7.32;;;9.30;99.90;;;;;;5031666;28;20056;-63
2023/11/03 03:08:51;;;;;;;9.90;6.72;;;9.30;99.90;;;;;;5049343;28;20052;-61
2023/11/03 03:11:18;;;;;;;12.13;8.45;;;9.30;99.90;;;;;;5048293;28;20491;-67
2023/11/03 03:13:45;;;;;;;18.90;8.75;;;9.30;99.90;;;;;;5051579;28;20455;-61
2023/11/03 03:16:16;;;;;;;11.00;8.40;;;9.30;99.90;;;;;;5032462;28;20048;-63
2023/11/03 03:18:43;;;;;;;11.07;8.43;;;9.30;99.90;;;;;;5048988;28;20044;-63
2023/11/03 03:21:10;;;;;;;13.05;8.20;;;9.30;99.90;;;;;;5048944;28;20084;-62
2023/11/03 03:23:37;;;;;;;11.10;7.63;;;9.30;99.90;;;;;;5049228;28;20493;-64
2023/11/03 03:26:04;;;;;;;13.38;7.32;;;9.30;99.90;;;;;;5060508;28;20037;-63
2023/11/03 03:28:31;;;;;;;12.48;8.25;;;9.30;99.90;;;;;;5029723;28;20068;-62
2023/11/03 03:30:58;;;;;;;9.30;7.53;;;9.30;99.90;;;;;;5055590;28;20041;-62
2023/11/03 03:33:25;;;;;;;17.13;7.82;;;9.30;99.90;;;;;;5048977;28;20044;-65
2023/11/03 03:35:52;;;;;;;10.35;8.70;;;9.30;99.90;;;;;;5048814;28;20059;-64
2023/11/03 03:38:19;;;;;;;12.27;7.68;;;9.30;99.90;;;;;;5039898;28;20060;-66
2023/11/03 03:40:46;;;;;;;10.77;8.52;;;9.30;99.90;;;;;;5049945;28;20485;-63
2023/11/03 03:43:13;;;;;;;13.85;7.60;;;9.30;99.90;;;;;;5029589;28;20049;-63
2023/11/03 03:45:40;;;;;;;12.55;8.93;;;9.20;99.90;;;;;;5050208;28;20053;-62
2023/11/03 03:48:07;;;;;;;8.13;7.05;;;9.30;99.90;;;;;;5049457;28;20041;-62
2023/11/03 03:50:34;;;;;;;11.43;8.15;;;9.30;99.90;;;;;;5030772;28;20494;-63
2023/11/03 03:53:00;;;;;;;10.77;7.38;;;9.20;99.90;;;;;;5030890;28;20476;-67
2023/11/03 03:55:27;;;;;;;10.80;7.60;;;9.20;99.90;;;;;;5049045;28;20095;-63
2023/11/03 03:57:54;;;;;;;9.23;7.10;;;9.30;99.90;;;;;;5032549;28;20087;-65
2023/11/03 04:00:21;;;;;;;11.85;8.05;;;9.20;99.90;;;;;;5055165;28;20043;-65
2023/11/03 04:02:48;;;;;;;7.53;6.72;;;9.20;99.90;;;;;;5049591;28;20060;-63
2023/11/03 04:05:15;;;;;;;12.80;7.50;;;9.20;99.90;;;;;;5048167;28;20045;-70
2023/11/03 04:07:43;;;;;;;9.15;6.85;;;9.20;99.90;;;;;;5048344;28;20037;-61
2023/11/03 04:10:11;;;;;;;9.35;7.65;;;9.20;99.90;;;;;;5047379;28;20099;-62
2023/11/03 04:12:38;;;;;;;9.68;7.70;;;9.20;99.90;;;;;;5048494;28;20475;-61
2023/11/03 04:15:05;;;;;;;11.77;7.88;;;9.20;99.90;;;;;;5030855;28;20076;-61
2023/11/03 04:17:32;;;;;;;10.50;7.53;;;9.20;99.90;;;;;;5045683;28;20053;-61
2023/11/03 04:19:59;;;;;;;10.00;8.52;;;9.20;99.90;;;;;;5048813;28;20518;-61
2023/11/03 04:22:26;;;;;;;16.80;9.20;;;9.20;99.90;;;;;;5048938;28;20124;-61
2023/11/03 04:24:53;;;;;;;9.45;7.68;;;9.20;99.90;;;;;;5045846;28;20053;-60
2023/11/03 04:27:20;;;;;;;9.02;8.13;;;9.30;99.90;;;;;;5049342;28;20483;-67
2023/11/03 04:29:47;;;;;;;11.35;8.07;;;9.20;99.90;;;;;;5056898;28;20092;-64
2023/11/03 04:32:13;;;;;;;13.80;9.30;;;9.20;99.90;;;;;;5052114;28;20053;-62
2023/11/03 04:34:40;;;;;;;9.98;8.55;;;9.30;99.90;;;;;;5051446;28;20049;-64
2023/11/03 04:37:07;;;;;;;10.68;8.35;;;9.20;99.90;;;;;;5050732;28;20131;-61
2023/11/03 04:39:34;;;;;;;10.13;7.55;;;9.20;99.90;;;;;;5049248;28;20040;-64
2023/11/03 04:42:02;;;;;;;9.85;7.50;;;9.20;99.90;;;;;;5052627;28;20120;-65
2023/11/03 04:44:29;;;;;;;10.65;8.38;;;9.20;99.90;;;;;;5054642;28;20045;-63
2023/11/03 04:46:55;;;;;;;10.07;8.43;;;9.20;99.90;;;;;;5049482;28;20419;-60
2023/11/03 04:49:22;;;;;;;9.48;8.48;;;9.20;99.90;;;;;;5057419;28;20051;-62
2023/11/03 04:51:49;;;;;;;17.67;8.90;;;9.20;99.90;;;;;;5054667;28;20116;-61
2023/11/03 04:54:16;;;;;;;9.05;7.70;;;9.30;99.90;;;;;;5046746;28;20048;-62
2023/11/03 04:56:44;;;;;;;19.58;7.75;;;9.20;99.90;;;;;;5051411;28;20045;-63
2023/11/03 04:59:11;;;;;;;8.93;7.20;;;9.20;99.90;;;;;;5049301;28;20052;-61
2023/11/03 05:01:38;;;;;;;8.73;7.22;;;9.20;99.90;;;;;;5048691;28;20156;-61
2023/11/03 05:04:05;;;;;;;15.32;8.68;;;9.20;99.90;;;;;;5052556;28;20276;-61
2023/11/03 05:06:31;;;;;;;13.07;8.85;;;9.20;99.90;;;;;;5050027;28;20045;-62
2023/11/03 05:08:58;;;;;;;14.40;7.82;;;9.20;99.90;;;;;;5055968;28;20398;-65
2023/11/03 05:11:25;;;;;;;13.38;8.10;;;9.20;99.90;;;;;;5047170;28;20087;-61
2023/11/03 05:13:52;;;;;;;13.10;7.57;;;9.10;99.90;;;;;;5045449;28;20130;-61
2023/11/03 05:16:19;;;;;;;10.75;7.47;;;9.10;99.90;;;;;;5051407;28;20127;-65
2023/11/03 05:18:46;;;;;;;13.60;8.30;;;9.10;99.90;;;;;;5050698;28;20044;-60
2023/11/03 05:21:14;;;;;;;9.20;7.78;;;9.10;99.90;;;;;;5056720;28;20118;-61
2023/11/03 05:23:41;;;;;;;10.77;8.60;;;9.10;99.90;;;;;;5050695;28;20116;-61
2023/11/03 05:26:11;;;;;;;12.10;7.68;;;9.10;99.90;;;;;;5047040;28;20072;-63
2023/11/03 05:28:39;;;;;;;13.85;7.95;;;9.10;99.90;;;;;;5055263;28;20045;-64
2023/11/03 05:31:05;;;;;;;9.85;7.70;;;9.10;99.90;;;;;;5054364;28;20045;-64
2023/11/03 05:33:33;;;;;;;11.32;8.45;;;9.10;99.90;;;;;;5055128;28;20120;-61
2023/11/03 05:36:00;;;;;;;14.38;7.50;;;9.10;99.90;;;;;;5056170;28;20136;-62
2023/11/03 05:38:26;;;;;;;16.30;8.27;;;9.10;99.90;;;;;;5052789;28;20045;-61
2023/11/03 05:40:53;;;;;;;8.73;6.50;;;9.10;99.90;;;;;;5057111;28;20082;-61
2023/11/03 05:43:20;;;;;;;11.93;7.18;;;9.10;99.90;;;;;;5060102;28;20247;-63
2023/11/03 05:45:47;;;;;;;12.88;7.97;;;9.10;99.90;;;;;;5053007;28;20061;-61
2023/11/03 05:48:14;;;;;;;11.07;7.22;;;9.10;99.90;;;;;;5061810;28;20048;-61
2023/11/03 05:50:41;;;;;;;12.60;8.10;;;9.20;99.90;;;;;;5052140;28;20060;-61
2023/11/03 05:53:08;;;;;;;10.80;7.93;;;9.20;99.90;;;;;;5055542;28;20168;-64
2023/11/03 05:55:35;;;;;;;11.63;8.30;;;9.20;99.90;;;;;;5054771;28;20067;-61
2023/11/03 05:58:02;;;;;;;9.88;6.97;;;9.20;99.90;;;;;;5050833;28;20529;-62
2023/11/03 06:00:30;;;;;;;13.93;7.65;;;9.20;99.90;;;;;;5053827;28;20049;-64
2023/11/03 06:02:57;;;;;;;14.23;8.73;;;9.20;99.90;;;;;;5051168;28;20048;-65
2023/11/03 06:05:24;;;;;;;9.15;7.10;;;9.20;99.90;;;;;;5053698;28;20040;-68
2023/11/03 06:07:51;;;;;;;13.93;7.50;;;9.20;99.90;;;;;;5049851;28;20049;-63
2023/11/03 06:10:18;;;;;;;13.93;7.47;;;9.20;99.90;;;;;;5052535;28;20068;-62
2023/11/03 06:12:46;;;;;;;11.23;7.75;;;9.30;99.90;;;;;;5052493;28;20050;-61
2023/11/03 06:15:13;;;;;;;13.60;7.45;;;9.30;99.90;;;;;;5056311;28;20503;-63
2023/11/03 06:17:40;;;;;;;13.20;7.70;;;9.20;99.90;;;;;;5050620;28;20050;-66
2023/11/03 06:20:08;;;;;;;8.52;7.18;;;9.20;99.90;;;;;;5051712;28;20075;-61
2023/11/03 06:22:35;;;;;;;9.23;7.70;;;9.20;99.90;;;;;;5052282;28;20041;-61
2023/11/03 06:25:03;;;;;;;12.25;7.68;;;9.30;99.90;;;;;;5047584;28;20045;-61
2023/11/03 06:27:30;;;;;;;16.30;7.15;;;9.30;99.90;;;;;;5051231;28;20099;-65
2023/11/03 06:29:57;;;;;;;9.05;6.65;;;9.30;99.90;;;;;;5053709;28;20041;-61
2023/11/03 06:32:25;;;;;;;10.45;7.22;;;9.40;99.90;;;;;;5049391;28;20048;-66
2023/11/03 06:34:52;;;;;;;8.68;6.97;;;9.30;99.90;;;;;;5053105;28;20044;-61
2023/11/03 06:37:18;;;;;;;11.82;7.75;;;9.30;99.90;;;;;;5052165;28;20059;-61
2023/11/03 06:39:45;;;;;;;12.23;8.43;;;9.30;99.90;;;;;;5050521;28;20045;-60
2023/11/03 06:42:12;;;;;;;9.57;7.30;;;9.30;99.90;;;;;;5056751;28;20069;-61
2023/11/03 06:44:39;;;;;;;12.60;8.00;;;9.30;99.90;;;;;;5049992;28;20079;-62
2023/11/03 06:47:06;;;;;;;9.55;6.80;;;9.40;99.90;;;;;;5059230;28;20052;-60
2023/11/03 06:49:33;;;;;;;16.27;8.10;;;9.40;99.90;;;;;;5053041;28;20168;-61
2023/11/03 06:52:00;;;;;;;11.48;7.22;;;9.40;99.90;;;;;;5053776;28;20064;-67
2023/11/03 06:54:27;;;;;;;11.00;7.43;;;9.40;99.90;;;;;;5047729;28;20049;-61
2023/11/03 06:56:54;;;;;;;14.18;7.63;;;9.40;99.90;;;;;;5053018;28;20567;-64
2023/11/03 06:59:22;;;;;;;7.93;6.57;;;9.40;99.90;;;;;;5037846;28;20790;-62
2023/11/03 07:01:49;;;;;;;9.85;6.68;;;9.40;99.90;;;;;;5052520;28;20419;-64
2023/11/03 07:04:16;;;;;;;6.80;5.85;;;9.40;99.90;;;;;;5047754;28;20506;-64
2023/11/03 07:06:43;;;;;;;7.95;6.47;;;9.50;99.90;;;;;;5055585;28;20135;-62
2023/11/03 07:09:11;;;;;;;12.30;6.70;;;9.50;99.90;;;;;;5051902;28;20151;-61
2023/11/03 07:11:38;;;;;;;7.78;6.93;;;9.50;99.90;;;;;;5059044;28;20094;-61
2023/11/03 07:14:05;;;;;;;10.05;7.40;;;9.50;99.90;;;;;;5049074;28;20126;-65
2023/11/03 07:16:33;;;;;;;9.43;7.20;;;9.50;99.90;;;;;;5052105;28;20049;-62
2023/11/03 07:19:00;;;;;;;9.95;7.97;;;9.50;99.90;;;;;;5054006;28;20060;-61
2023/11/03 07:21:27;;;;;;;9.00;7.18;;;9.50;99.90;;;;;;5051008;28;20446;-64
2023/11/03 07:23:53;;;;;;;11.05;7.75;;;9.50;99.90;;;;;;5049079;28;20033;-65
2023/11/03 07:26:21;;;;;;;12.73;7.15;;;9.50;99.90;;;;;;5052616;28;20045;-71
2023/11/03 07:28:48;;;;;;;10.25;6.88;;;9.50;99.90;;;;;;5048275;28;20045;-64
2023/11/03 07:31:16;;;;;;;10.13;7.35;;;9.50;99.90;;;;;;5047024;28;20048;-65
2023/11/03 07:33:43;;;;;;;8.63;6.47;;;9.50;99.90;;;;;;5056567;28;20045;-64
2023/11/03 07:36:11;;;;;;;12.20;7.18;;;9.50;99.90;;;;;;5051056;28;20103;-63
2023/11/03 07:38:39;;;;;;;15.63;7.93;;;9.50;99.90;;;;;;5058981;28;20455;-61
2023/11/03 07:41:08;;;;;;;16.17;8.63;;;9.50;99.90;;;;;;5046504;28;20045;-63
2023/11/03 07:43:38;;;;;;;9.95;7.38;;;9.50;99.90;;;;;;5050752;28;20113;-62
2023/11/03 07:46:06;;;;;;;13.48;7.53;;;9.50;99.90;;;;;;5057867;28;20048;-62
2023/11/03 07:48:33;;;;;;;10.65;7.78;;;9.50;99.90;;;;;;5052777;28;20056;-61
2023/11/03 07:51:01;;;;;;;12.45;8.30;;;9.50;99.90;;;;;;5055909;28;20060;-62
2023/11/03 07:53:28;;;;;;;9.98;6.70;;;9.50;99.90;;;;;;5055296;28;20048;-62
2023/11/03 07:55:55;;;;;;;9.65;6.80;;;9.50;99.90;;;;;;5048466;28;20048;-61
2023/11/03 07:58:22;;;;;;;12.05;7.70;;;9.60;99.90;;;;;;5053979;28;20059;-68
2023/11/03 08:00:49;;;;;;;9.77;6.68;;;9.60;99.90;;;;;;5046450;28;20170;-61
2023/11/03 08:03:17;;;;;;;10.10;6.68;;;9.60;99.90;;;;;;5055685;28;20040;-61
2023/11/03 08:05:45;;;;;;;14.18;7.05;;;9.60;99.90;;;;;;5054049;28;20047;-62
2023/11/03 08:08:14;;;;;;;10.10;6.00;;;9.60;99.90;;;;;;5053023;28;20119;-61
2023/11/03 08:10:42;;;;;;;8.30;5.95;;;9.60;99.90;;;;;;5051477;28;20037;-62
2023/11/03 08:13:09;;;;;;;9.10;6.60;;;9.60;99.90;;;;;;5046086;28;20053;-61
2023/11/03 08:15:36;;;;;;;10.00;8.32;;;9.60;99.90;;;;;;5048539;28;20129;-61
2023/11/03 08:18:07;;;;;;;9.30;6.90;;;9.60;99.90;;;;;;5053930;28;20123;-61
2023/11/03 08:20:33;;;;;;;14.68;8.07;;;9.60;99.90;;;;;;5049081;28;20121;-62
2023/11/03 08:23:00;;;;;;;10.43;7.05;;;9.60;99.90;;;;;;5050939;28;20045;-61
2023/11/03 08:25:29;;;;;;;11.60;7.18;;;9.60;99.90;;;;;;5052238;28;20111;-61
2023/11/03 08:27:57;;;;;;;13.90;7.07;;;9.60;99.90;;;;;;5041724;28;20042;-64
2023/11/03 08:30:25;;;;;;;8.88;6.82;;;9.60;99.90;;;;;;5052297;28;20043;-66
2023/11/03 08:32:52;;;;;;;11.82;7.18;;;9.60;99.90;;;;;;5049247;28;20126;-64
2023/11/03 08:35:20;;;;;;;12.50;7.57;;;9.60;99.90;;;;;;5052315;28;20049;-67
2023/11/03 08:37:54;;;;;;;11.25;7.05;;;9.60;99.90;;;;;;5050656;28;20044;-60
2023/11/03 08:40:22;;;;;;;14.10;7.65;;;9.60;99.90;;;;;;5048920;28;20154;-61
2023/11/03 08:42:49;;;;;;;7.82;5.80;;;9.60;99.90;;;;;;5055133;28;20051;-63
2023/11/03 08:45:18;;;;;;;12.68;7.20;;;9.60;99.90;;;;;;5052053;28;20453;-61
2023/11/03 08:47:46;;;;;;;11.20;6.63;;;9.60;99.90;;;;;;5046357;28;20071;-61
2023/11/03 08:50:14;;;;;;;9.95;6.65;;;9.60;99.90;;;;;;5054335;28;20068;-62
2023/11/03 08:52:44;;;;;;;11.85;6.82;;;9.70;99.90;;;;;;5051871;28;20041;-61
2023/11/03 08:55:12;;;;;;;10.88;7.00;;;9.60;99.90;;;;;;5059495;28;20044;-61
2023/11/03 08:57:42;;;;;;;9.55;7.28;;;9.60;99.90;;;;;;5054054;28;20107;-62
2023/11/03 09:00:11;;;;;;;11.93;7.30;;;9.70;99.90;;;;;;5051295;28;20049;-61
2023/11/03 09:02:40;;;;;;;12.57;6.43;;;9.70;99.90;;;;;;5053552;28;20380;-61
2023/11/03 09:05:09;;;;;;;11.45;7.63;;;9.70;99.90;;;;;;5054180;28;20551;-63
2023/11/03 09:07:37;;;;;;;10.98;6.55;;;9.70;99.90;;;;;;5052184;28;20123;-65
2023/11/03 09:10:06;;;;;;;11.02;6.07;;;9.70;99.90;;;;;;5055830;28;20096;-61
2023/11/03 09:12:34;;;;;;;11.35;7.35;;;9.70;99.90;;;;;;5051988;28;20068;-61
2023/11/03 09:15:07;;;;;;;9.07;6.38;;;9.70;99.90;;;;;;5058495;28;20049;-70
2023/11/03 09:17:36;;;;;;;10.32;6.32;;;9.70;99.90;;;;;;5057964;28;20043;-60
2023/11/03 09:20:07;;;;;;;15.63;7.35;;;9.70;99.90;;;;;;5055086;28;20040;-61
2023/11/03 09:22:34;;;;;;;9.18;6.32;;;9.80;99.90;;;;;;5054064;28;20417;-62
2023/11/03 09:25:04;;;;;;;10.67;6.67;;;9.80;99.90;;;;;;5052171;28;20625;-61
2023/11/03 09:27:33;;;;;;;12.15;8.45;;;9.80;99.90;;;;;;5056166;28;20049;-65
2023/11/03 09:30:02;;;;;;;9.38;6.95;;;9.80;99.90;;;;;;5056191;28;20063;-61
2023/11/03 09:32:30;;;;;;;8.20;6.32;;;9.80;99.90;;;;;;5050974;28;20095;-64
2023/11/03 09:34:58;;;;;;;7.57;5.75;;;9.80;99.90;;;;;;5053586;28;20057;-61
2023/11/03 09:37:25;;;;;;;8.40;6.50;;;9.80;99.90;;;;;;5054565;28;20057;-63
2023/11/03 09:39:52;;;;;;;16.15;6.63;;;9.70;99.90;;;;;;5050526;28;20041;-65
2023/11/03 09:42:20;;;;;;;11.32;8.30;;;9.80;99.90;;;;;;5061355;28;20483;-66
2023/11/03 09:44:47;;;;;;;12.30;6.88;;;9.70;99.90;;;;;;5052289;28;20041;-61
2023/11/03 09:47:17;;;;;;;12.23;7.32;;;9.70;99.90;;;;;;5059692;28;20053;-61
2023/11/03 09:49:45;;;;;;;8.73;7.82;;;9.80;99.90;;;;;;5052377;28;20114;-61
2023/11/03 09:52:13;;;;;;;13.93;9.70;;;9.80;99.90;;;;;;5050890;28;20049;-63
2023/11/03 09:54:41;;;;;;;8.88;6.70;;;9.80;99.90;;;;;;5052603;28;20119;-62
2023/11/03 09:57:11;;;;;;;11.32;6.22;;;9.80;99.90;;;;;;5033844;28;20467;-62
2023/11/03 09:59:39;;;;;;;9.30;5.90;;;9.80;99.90;;;;;;5049540;28;20122;-61
2023/11/03 10:02:20;;;;;;;7.75;5.13;;;9.80;99.90;;;;;;5058781;28;20033;-68
2023/11/03 10:04:47;;;;;;;6.80;5.85;;;9.80;99.90;;;;;;5043582;28;20048;-61
2023/11/03 10:07:17;;;;;;;5.82;4.90;;;9.80;99.90;;;;;;5051085;28;20037;-61
2023/11/03 10:09:44;;;;;;;7.00;4.72;;;9.80;99.90;;;;;;5054394;28;20058;-62
2023/11/03 10:12:15;;;;;;;4.82;3.58;;;9.80;99.90;;;;;;5048333;28;20040;-61
2023/11/03 10:14:43;;;;;;;5.53;3.83;;;9.80;99.90;;;;;;5056571;28;20045;-62
2023/11/03 10:17:11;;;;;;;3.72;3.20;;;9.80;99.90;;;;;;5052563;28;20045;-62
2023/11/03 10:19:38;;;;;;;4.75;4.32;;;9.70;99.90;;;;;;5049893;28;20041;-61
2023/11/03 10:22:08;;;;;;;5.35;4.75;;;9.70;99.90;;;;;;5052934;28;20495;-63
2023/11/03 10:24:38;;;;;;;5.07;4.00;;;9.70;99.90;;;;;;5050240;28;20071;-70
2023/11/03 10:27:11;;;;;;;4.65;4.18;;;9.70;99.90;;;;;;5057170;28;20080;-62
2023/11/03 10:29:40;;;;;;;5.88;4.13;;;9.70;99.90;;;;;;5048178;28;20041;-62
2023/11/03 10:32:09;;;;;;;4.57;4.18;;;9.70;99.90;;;;;;5047264;28;20047;-62
2023/11/03 10:34:38;;;;;;;4.13;3.72;;;9.70;99.90;;;;;;5053692;28;20072;-61
2023/11/03 10:37:06;;;;;;;7.80;3.90;;;9.70;99.90;;;;;;5048614;28;20051;-70
2023/11/03 10:39:33;;;;;;;5.97;4.10;;;9.70;99.90;;;;;;5052438;28;20072;-61
2023/11/03 10:42:02;;;;;;;4.78;4.38;;;9.70;99.90;;;;;;5057202;28;20049;-63
2023/11/03 10:44:31;;;;;;;5.22;3.80;;;9.70;99.90;;;;;;5051517;28;20051;-61
2023/11/03 10:47:04;;;;;;;6.25;4.97;;;9.70;99.90;;;;;;5049698;28;20037;-64
2023/11/03 10:49:33;;;;;;;6.75;4.30;;;9.70;99.90;;;;;;5051300;28;20490;-67
2023/11/03 10:52:13;;;;;;;6.45;4.38;;;9.70;99.90;;;;;;5052494;28;20074;-61
2023/11/03 10:54:59;;;;;;;5.55;5.05;;;9.70;99.90;;;;;;5054061;28;20037;-65
2023/11/03 10:57:27;;;;;;;7.60;4.70;;;9.70;99.90;;;;;;5053351;28;20045;-61
2023/11/03 11:00:10;;;;;;;6.45;5.20;;;9.70;99.90;;;;;;5051624;28;20068;-61
2023/11/03 11:02:49;;;;;;;7.28;4.85;;;9.70;99.90;;;;;;5050142;28;20033;-61
2023/11/03 11:05:29;;;;;;;5.80;4.40;;;9.80;99.90;;;;;;5049876;28;20045;-71
2023/11/03 11:08:01;;;;;;;5.85;4.22;;;9.80;99.90;;;;;;5050715;28;20114;-62
2023/11/03 11:10:48;;;;;;;3.70;3.25;;;9.80;99.90;;;;;;5045817;28;20471;-61
2023/11/03 11:13:20;;;;;;;6.93;4.13;;;9.80;99.90;;;;;;5051237;28;20049;-62
2023/11/03 11:15:56;;;;;;;5.38;3.78;;;9.80;99.90;;;;;;5053313;28;20052;-66
2023/11/03 11:18:25;;;;;;;6.32;4.97;;;9.80;99.90;;;;;;5055825;28;20048;-65
2023/11/03 11:20:54;;;;;;;4.93;4.28;;;9.80;99.90;;;;;;5055255;28;20383;-60
2023/11/03 11:23:29;;;;;;;4.80;4.30;;;9.80;99.90;;;;;;5049151;28;20053;-64
2023/11/03 11:25:56;;;;;;;6.15;3.53;;;9.80;99.90;;;;;;5052061;28;20142;-65
2023/11/03 11:28:40;;;;;;;3.28;2.97;;;9.80;99.90;;;;;;5045712;28;20103;-65
2023/11/03 11:31:25;;;;;;;6.50;4.43;;;9.80;99.90;;;;;;5045913;28;20414;-65
2023/11/03 11:34:02;;;;;;;4.63;4.22;;;9.80;99.90;;;;;;5051533;28;20037;-62
2023/11/03 11:36:31;;;;;;;4.38;3.88;;;9.80;99.90;;;;;;5052165;28;20050;-61
2023/11/03 11:39:13;;;;;;;6.40;4.45;;;9.80;99.90;;;;;;5057716;28;20044;-61
2023/11/03 11:41:53;;;;;;;6.50;3.90;;;9.80;99.90;;;;;;5044969;28;20398;-61
2023/11/03 11:44:25;;;;;;;7.93;5.17;;;9.80;99.90;;;;;;5048912;28;20411;-64
2023/11/03 11:46:56;;;;;;;4.85;3.65;;;9.80;99.90;;;;;;5057230;28;20282;-61
2023/11/03 11:49:24;;;;;;;6.60;5.82;;;9.80;99.90;;;;;;5049656;28;20067;-67
2023/11/03 11:51:54;;;;;;;7.97;5.00;;;9.80;99.90;;;;;;5058936;28;20427;-61
2023/11/03 11:54:22;;;;;;;5.65;3.75;;;9.80;99.90;;;;;;5054288;28;20124;-64
2023/11/03 11:56:49;;;;;;;5.07;4.10;;;9.80;99.90;;;;;;5051105;28;20123;-63
2023/11/03 11:59:20;;;;;;;5.15;3.90;;;9.80;99.90;;;;;;5054440;28;20044;-63
2023/11/03 12:01:48;;;;;;;5.22;4.00;;;9.80;99.90;;;;;;5048447;28;20048;-62
2023/11/03 12:04:16;;;;;;;5.70;4.82;;;9.80;99.90;;;;;;5049606;28;20041;-63
2023/11/03 12:06:44;;;;;;;5.78;4.82;;;9.80;99.90;;;;;;5056250;28;20522;-61
2023/11/03 12:09:15;;;;;;;7.20;4.40;;;9.80;99.90;;;;;;5047347;28;20076;-61
2023/11/03 12:11:42;;;;;;;9.13;5.13;;;9.80;99.90;;;;;;5031330;28;20072;-62
2023/11/03 12:14:11;;;;;;;7.13;4.50;;;9.80;99.90;;;;;;5049067;28;20084;-62
2023/11/03 12:16:38;;;;;;;8.68;4.55;;;9.80;99.90;;;;;;5056038;28;20045;-62
2023/11/03 12:19:06;;;;;;;4.72;4.30;;;9.80;99.90;;;;;;5048255;28;20040;-61
2023/11/03 12:21:34;;;;;;;7.97;4.60;;;9.80;99.90;;;;;;5049201;28;20053;-61
2023/11/03 12:24:03;;;;;;;7.93;5.07;;;9.80;99.90;;;;;;5057007;28;20128;-62
2023/11/03 12:26:31;;;;;;;5.85;4.68;;;9.80;99.90;;;;;;5050811;28;20045;-61
2023/11/03 12:29:30;;;;;;;7.93;6.20;;;9.80;99.90;;;;;;5055487;28;20040;-64
2023/11/03 12:32:00;;;;;;;7.35;6.05;;;9.80;99.90;;;;;;5056744;28;20094;-64
2023/11/03 12:34:29;;;;;;;9.43;6.43;;;9.80;99.90;;;;;;5054004;28;20143;-64
2023/11/03 12:36:57;;;;;;;9.10;6.47;;;9.80;99.90;;;;;;5053693;28;20041;-61
2023/11/03 12:39:26;;;;;;;13.25;8.30;;;9.80;99.90;;;;;;5056259;28;20391;-64
2023/11/03 12:42:22;;;;;;;12.23;6.13;;;9.80;99.90;;;;;;5057171;28;20088;-63
2023/11/03 12:44:49;;;;;;;11.55;7.43;;;9.80;99.90;;;;;;5055417;28;20049;-63
2023/11/03 12:47:39;;;;;;;13.00;7.43;;;9.80;99.90;;;;;;5051649;28;20045;-65
2023/11/03 12:50:17;;;;;;;10.93;8.57;;;9.80;99.90;;;;;;5055171;28;20045;-63
2023/11/03 12:52:55;;;;;;;11.30;6.95;;;9.80;99.90;;;;;;5050934;28;20045;-62
2023/11/03 12:55:25;;;;;;;12.63;9.18;;;9.80;99.90;;;;;;5050912;28;20048;-67
2023/11/03 12:57:55;;;;;;;14.32;8.48;;;9.90;99.90;;;;;;5052416;28;20041;-61